Georges Run, Ohio
Current Conditions -  °F | °C
As of 4:04 PM on Thursday 27 Nov 2014 (Local Time) from KHLG Reporting Station
Light Snow Light Snow  
Wind Chill: 22°   Ceiling: 1400
Heat Index: 30°   Visibility: 1mi
Dew Point: 27°   Wind: 9mph
Humidity: 88%   Direction: 280°W
Pressure: 30.15"   Gusts: NA
Location:  40.3094°N, 80.6472°W
Report Text: KHLG 272104Z 28008KT 1SM R03/P6000FT -SN BR SCT009 BKN014 OVC022 M01/M03 A3015 RMK AO2 P0000 T10111028
Loading
Personal Weather Stations






























Interactive Weather Map New forecast layout! Learn more

10-Day Weather Forecast

Advertisements
Track Severe Weather on mobile